Time;durP1;ratioP1;P1;durP2;ratioP2;P2;SDS_P1;SDS_P2;PMS_P1;PMS_P2;Temp;Humidity;BMP_temperature;BMP_pressure;BME280_temperature;BME280_humidity;BME280_pressure;Samples;Min_cycle;Max_cycle;Signal;HPM_P1;HPM_P2
2022/05/01 00:00:23;;;;;;;55.03;41.67;;;9.50;99.90;;;;;;2485433;23;20503;-72
2022/05/01 00:01:23;;;;;;;60.10;43.17;;;9.50;99.90;;;;;;2484970;23;20016;-72
2022/05/01 00:02:24;;;;;;;57.05;42.58;;;9.50;99.90;;;;;;2472370;23;20342;-73
2022/05/01 00:03:34;;;;;;;57.00;42.03;;;9.50;99.90;;;;;;2472537;24;20636;-72
2022/05/01 00:04:35;;;;;;;58.47;42.05;;;9.40;99.90;;;;;;2484393;23;20003;-72
2022/05/01 00:05:35;;;;;;;56.47;41.40;;;9.40;99.90;;;;;;2484515;23;20000;-72
2022/05/01 00:06:36;;;;;;;57.67;41.97;;;9.40;99.90;;;;;;2484419;23;20043;-72
2022/05/01 00:07:37;;;;;;;53.97;40.25;;;9.40;99.90;;;;;;2484217;23;20349;-72
2022/05/01 00:08:41;;;;;;;55.90;39.40;;;9.40;99.90;;;;;;2471963;24;20046;-71
2022/05/01 00:09:41;;;;;;;56.55;39.85;;;9.40;99.90;;;;;;2472427;23;20016;-71
2022/05/01 00:10:42;;;;;;;50.80;38.58;;;9.40;99.90;;;;;;2483878;23;20014;-71
2022/05/01 00:11:43;;;;;;;52.97;38.50;;;9.40;99.90;;;;;;2484411;23;20018;-73
2022/05/01 00:12:44;;;;;;;52.20;39.63;;;9.30;99.90;;;;;;2484287;23;20472;-71
2022/05/01 00:13:45;;;;;;;48.47;38.63;;;9.30;99.90;;;;;;2484460;23;20310;-71
2022/05/01 00:14:46;;;;;;;50.92;38.58;;;9.30;99.90;;;;;;2484455;23;20008;-72
2022/05/01 00:15:46;;;;;;;51.60;39.22;;;9.30;99.90;;;;;;2484507;23;20008;-71
2022/05/01 00:16:49;;;;;;;56.92;37.70;;;9.30;99.90;;;;;;2484357;23;20039;-72
2022/05/01 00:17:49;;;;;;;52.97;38.50;;;9.30;99.90;;;;;;2484246;23;20467;-72
2022/05/01 00:18:50;;;;;;;50.95;38.35;;;9.30;99.90;;;;;;2484459;23;20008;-72
2022/05/01 00:19:51;;;;;;;52.58;38.38;;;9.30;99.90;;;;;;2484660;23;20087;-71
2022/05/01 00:20:52;;;;;;;54.63;38.88;;;9.30;99.90;;;;;;2471799;24;20488;-72
2022/05/01 00:21:55;;;;;;;56.08;39.58;;;9.30;99.90;;;;;;2471796;24;20012;-72
2022/05/01 00:22:57;;;;;;;59.05;41.03;;;9.30;99.90;;;;;;2483485;23;20012;-71
2022/05/01 00:23:58;;;;;;;58.92;41.83;;;9.20;99.90;;;;;;2484114;23;20516;-70
2022/05/01 00:24:58;;;;;;;58.78;40.92;;;9.20;99.90;;;;;;2484386;23;20123;-71
2022/05/01 00:26:00;;;;;;;59.88;41.28;;;9.20;99.90;;;;;;2484173;23;20042;-72
2022/05/01 00:27:01;;;;;;;57.85;40.55;;;9.20;99.90;;;;;;2483800;23;20011;-71
2022/05/01 00:28:02;;;;;;;59.67;40.95;;;9.20;99.90;;;;;;2484032;23;20484;-71
2022/05/01 00:29:04;;;;;;;59.70;41.05;;;9.20;99.90;;;;;;2471842;24;20016;-73
2022/05/01 00:30:05;;;;;;;57.45;40.65;;;9.20;99.90;;;;;;2471974;23;20032;-72
2022/05/01 00:31:07;;;;;;;60.15;41.35;;;9.20;99.90;;;;;;2484205;23;20062;-72
2022/05/01 00:32:08;;;;;;;57.00;40.47;;;9.10;99.90;;;;;;2484384;23;20020;-71
2022/05/01 00:37:07;;;;;;;59.20;41.20;;;9.10;99.90;;;;;;2483644;23;20007;-73
2022/05/01 00:38:07;;;;;;;63.30;41.30;;;9.00;99.90;;;;;;2483837;23;20456;-72
2022/05/01 00:39:08;;;;;;;57.33;40.67;;;9.00;99.90;;;;;;2483883;23;20008;-72
2022/05/01 00:40:09;;;;;;;56.60;40.92;;;9.00;99.90;;;;;;2483537;23;20011;-71
2022/05/01 00:41:11;;;;;;;54.42;39.80;;;9.00;99.90;;;;;;2483871;23;20012;-73
2022/05/01 00:42:11;;;;;;;57.20;40.30;;;9.00;99.90;;;;;;2483133;23;20015;-72
2022/05/01 00:43:12;;;;;;;54.08;39.20;;;9.00;99.90;;;;;;2483242;23;20020;-72
2022/05/01 00:44:15;;;;;;;53.55;38.83;;;9.00;99.90;;;;;;2483898;23;20588;-71
2022/05/01 00:45:16;;;;;;;55.50;38.55;;;8.90;99.90;;;;;;2483801;23;20140;-73
2022/05/01 00:46:17;;;;;;;60.55;40.67;;;9.00;99.90;;;;;;2483903;23;20056;-73
2022/05/01 00:47:18;;;;;;;56.72;40.08;;;8.90;99.90;;;;;;2483528;23;20056;-73
2022/05/01 00:48:18;;;;;;;57.10;40.88;;;8.90;99.90;;;;;;2483704;23;20039;-73
2022/05/01 00:49:22;;;;;;;54.95;39.30;;;8.90;99.90;;;;;;2483849;23;20015;-73
2022/05/01 00:50:24;;;;;;;59.60;40.65;;;8.90;99.90;;;;;;2471528;24;20008;-72
2022/05/01 00:51:25;;;;;;;58.05;39.42;;;8.90;99.90;;;;;;2471660;23;20323;-73
2022/05/01 00:52:26;;;;;;;61.33;41.40;;;8.80;99.90;;;;;;2483128;23;20029;-73
2022/05/01 00:53:27;;;;;;;56.03;39.90;;;8.80;99.90;;;;;;2482965;23;20015;-72
2022/05/01 00:54:32;;;;;;;56.15;40.45;;;8.80;99.90;;;;;;2483103;23;20043;-72
2022/05/01 00:55:33;;;;;;;56.83;39.35;;;8.80;99.90;;;;;;2484574;23;20019;-73
2022/05/01 00:56:38;;;;;;;58.15;41.05;;;8.80;99.90;;;;;;2472086;23;20008;-73
2022/05/01 00:57:39;;;;;;;57.33;40.80;;;8.80;99.90;;;;;;2473046;23;20004;-73
2022/05/01 00:58:40;;;;;;;55.15;40.85;;;8.80;99.90;;;;;;2484746;23;20003;-72
2022/05/01 00:59:43;;;;;;;54.95;39.67;;;8.80;99.90;;;;;;2472217;23;19996;-71
2022/05/01 01:00:45;;;;;;;59.13;40.47;;;8.80;99.90;;;;;;2472593;23;20514;-71
2022/05/01 01:01:47;;;;;;;57.00;41.42;;;8.80;99.90;;;;;;2484643;23;20012;-71
2022/05/01 01:02:47;;;;;;;56.95;40.92;;;8.70;99.90;;;;;;2483911;23;20018;-73
2022/05/01 01:03:48;;;;;;;57.75;40.10;;;8.80;99.90;;;;;;2483951;23;20530;-72
2022/05/01 01:04:49;;;;;;;56.08;39.97;;;8.70;99.90;;;;;;2483881;23;20018;-73
2022/05/01 01:05:49;;;;;;;54.10;40.03;;;8.70;99.90;;;;;;2484036;23;20104;-73
2022/05/01 01:06:51;;;;;;;57.00;40.97;;;8.80;99.90;;;;;;2484429;23;20067;-71
2022/05/01 01:07:52;;;;;;;58.83;41.83;;;8.70;99.90;;;;;;2483885;23;20447;-72
2022/05/01 01:08:53;;;;;;;57.00;41.00;;;8.70;99.90;;;;;;2483924;23;20046;-71
2022/05/01 01:09:54;;;;;;;55.70;39.97;;;8.70;99.90;;;;;;2484764;23;20011;-73
2022/05/01 01:10:54;;;;;;;56.60;40.53;;;8.70;99.90;;;;;;2471911;23;20009;-73
2022/05/01 01:13:14;;;;;;;51.78;38.92;;;8.60;99.90;;;;;;2484035;23;19999;-71
2022/05/01 01:14:15;;;;;;;54.95;38.90;;;8.60;99.90;;;;;;2484080;23;20028;-71
2022/05/01 01:15:16;;;;;;;51.17;38.75;;;8.60;99.90;;;;;;2483954;23;20022;-71
2022/05/01 01:16:17;;;;;;;55.65;39.67;;;8.60;99.90;;;;;;2483989;23;20007;-71
2022/05/01 01:17:17;;;;;;;50.85;38.25;;;8.60;99.90;;;;;;2483805;23;20418;-72
2022/05/01 01:18:18;;;;;;;54.72;40.75;;;8.60;99.90;;;;;;2484240;23;20008;-71
2022/05/01 01:19:18;;;;;;;54.80;40.47;;;8.50;99.90;;;;;;2484302;23;20004;-72
2022/05/01 01:20:23;;;;;;;57.45;40.92;;;8.50;99.90;;;;;;2483999;23;20003;-72
2022/05/01 01:21:24;;;;;;;55.75;41.25;;;8.50;99.90;;;;;;2484213;23;20007;-71
2022/05/01 01:22:25;;;;;;;53.30;39.03;;;8.50;99.90;;;;;;2484259;23;20007;-73
2022/05/01 01:23:25;;;;;;;51.40;37.83;;;8.50;99.90;;;;;;2483637;23;20030;-71
2022/05/01 01:24:27;;;;;;;49.25;36.78;;;8.50;99.90;;;;;;2483615;23;20011;-72
2022/05/01 01:25:31;;;;;;;48.28;36.65;;;8.50;99.90;;;;;;2483715;23;20341;-73
2022/05/01 01:26:32;;;;;;;51.80;38.03;;;8.40;99.90;;;;;;2483544;23;20083;-73
2022/05/01 01:27:32;;;;;;;48.75;36.90;;;8.40;99.90;;;;;;2484184;23;20505;-73
2022/05/01 01:28:35;;;;;;;49.75;35.97;;;8.40;99.90;;;;;;2471889;24;20079;-71
2022/05/01 01:32:16;;;;;;;48.25;36.70;;;8.30;99.90;;;;;;2484122;23;20500;-73
2022/05/01 01:33:17;;;;;;;49.95;37.25;;;8.30;99.90;;;;;;2484198;23;20004;-73
2022/05/01 01:34:21;;;;;;;50.30;38.20;;;8.30;99.90;;;;;;2484298;23;20082;-73
2022/05/01 01:35:26;;;;;;;52.80;37.58;;;8.30;99.90;;;;;;2471913;24;20012;-71
2022/05/01 01:36:28;;;;;;;51.63;37.53;;;8.20;99.90;;;;;;2483260;23;20670;-73
2022/05/01 01:37:29;;;;;;;52.83;37.90;;;8.20;99.90;;;;;;2482508;23;20011;-72
2022/05/01 01:38:30;;;;;;;52.58;38.22;;;8.20;99.90;;;;;;2483604;23;20016;-73
2022/05/01 01:39:31;;;;;;;53.13;38.55;;;8.20;99.90;;;;;;2484039;23;20027;-73
2022/05/01 01:40:40;;;;;;;50.95;37.20;;;8.20;99.90;;;;;;2483967;23;20023;-73
2022/05/01 01:41:43;;;;;;;52.72;36.75;;;8.20;99.90;;;;;;2484077;23;20055;-73
2022/05/01 01:42:46;;;;;;;52.03;37.30;;;8.20;99.90;;;;;;2483400;23;20028;-73
2022/05/01 01:43:48;;;;;;;48.20;35.53;;;8.20;99.90;;;;;;2483491;23;20030;-73
2022/05/01 01:44:50;;;;;;;48.08;36.15;;;8.20;99.90;;;;;;2483394;23;20359;-73
2022/05/01 01:45:50;;;;;;;50.28;36.65;;;8.10;99.90;;;;;;2483656;23;20035;-72
2022/05/01 01:46:51;;;;;;;48.00;35.63;;;8.10;99.90;;;;;;2482912;23;20004;-72
2022/05/01 01:47:51;;;;;;;50.78;35.25;;;8.10;99.90;;;;;;2482619;23;20349;-72
2022/05/01 01:48:53;;;;;;;46.50;34.60;;;8.10;99.90;;;;;;2471826;24;20648;-72
2022/05/01 01:49:53;;;;;;;47.30;35.20;;;8.10;99.90;;;;;;2471852;23;20016;-72
2022/05/01 01:51:06;;;;;;;48.60;34.97;;;8.10;99.90;;;;;;2483054;23;20060;-72
2022/05/01 01:52:06;;;;;;;47.50;35.20;;;8.10;99.90;;;;;;2483681;23;20034;-72
2022/05/01 01:53:08;;;;;;;48.25;34.80;;;8.10;99.90;;;;;;2484170;23;20027;-72
2022/05/01 01:54:09;;;;;;;46.47;34.20;;;8.00;99.90;;;;;;2483052;23;20453;-72
2022/05/01 01:55:10;;;;;;;47.88;34.33;;;8.00;99.90;;;;;;2483273;23;20011;-72
2022/05/01 01:56:11;;;;;;;47.97;34.47;;;8.00;99.90;;;;;;2483419;23;20003;-71
2022/05/01 01:57:12;;;;;;;44.65;34.35;;;8.00;99.90;;;;;;2483871;23;20014;-73
2022/05/01 01:58:12;;;;;;;46.75;34.85;;;7.90;99.90;;;;;;2485016;23;20019;-72
2022/05/01 01:59:13;;;;;;;46.05;34.35;;;7.90;99.90;;;;;;2484682;23;20066;-72
2022/05/01 02:00:14;;;;;;;45.55;33.70;;;8.00;99.90;;;;;;2471742;24;20034;-72
2022/05/01 02:01:15;;;;;;;47.03;35.53;;;7.90;99.90;;;;;;2471849;23;20027;-72
2022/05/01 02:02:15;;;;;;;44.53;33.28;;;7.90;99.90;;;;;;2484292;23;20032;-73
2022/05/01 02:03:16;;;;;;;43.38;32.38;;;7.90;99.90;;;;;;2471833;24;20462;-72
2022/05/01 02:04:18;;;;;;;47.78;33.83;;;7.90;99.90;;;;;;2472401;24;20047;-72
2022/05/01 02:05:19;;;;;;;44.38;32.83;;;7.90;99.90;;;;;;2484616;23;20070;-72
2022/05/01 02:06:19;;;;;;;44.05;33.45;;;7.90;99.90;;;;;;2485391;23;20105;-73
2022/05/01 02:07:20;;;;;;;45.72;33.08;;;7.90;99.90;;;;;;2485686;23;20012;-74
2022/05/01 02:08:21;;;;;;;47.45;33.53;;;7.90;99.90;;;;;;2485527;23;20083;-73
2022/05/01 02:09:22;;;;;;;45.40;33.20;;;7.90;99.90;;;;;;2484333;23;20459;-73
2022/05/01 02:10:23;;;;;;;43.72;32.60;;;7.90;99.90;;;;;;2483532;23;20052;-72
2022/05/01 02:11:24;;;;;;;43.88;32.88;;;7.90;99.90;;;;;;2483661;23;20071;-73
2022/05/01 02:12:26;;;;;;;46.17;34.42;;;7.80;99.90;;;;;;2484346;23;20015;-73
2022/05/01 02:13:26;;;;;;;47.05;34.22;;;7.80;99.90;;;;;;2484540;23;20008;-73
2022/05/01 02:14:27;;;;;;;43.50;33.08;;;7.80;99.90;;;;;;2484401;23;20074;-73
2022/05/01 02:15:30;;;;;;;45.97;33.25;;;7.80;99.90;;;;;;2471835;23;20036;-73
2022/05/01 02:16:31;;;;;;;46.08;33.63;;;7.80;99.90;;;;;;2472687;23;20012;-72
2022/05/01 02:17:33;;;;;;;42.25;31.88;;;7.80;99.90;;;;;;2484130;23;20004;-71
2022/05/01 02:18:34;;;;;;;43.33;32.63;;;7.80;99.90;;;;;;2472341;24;20061;-71
2022/05/01 02:19:34;;;;;;;43.40;32.80;;;7.80;99.90;;;;;;2460662;24;20005;-71
2022/05/01 02:21:55;;;;;;;44.00;32.07;;;7.70;99.90;;;;;;2484492;23;20075;-72
2022/05/01 02:22:56;;;;;;;42.60;31.23;;;7.70;99.90;;;;;;2484285;23;20228;-71
2022/05/01 02:23:57;;;;;;;43.20;31.95;;;7.80;99.90;;;;;;2459849;24;20079;-71
2022/05/01 02:24:57;;;;;;;42.58;31.50;;;7.70;99.90;;;;;;2460051;23;20486;-71
2022/05/01 02:25:58;;;;;;;43.65;31.33;;;7.70;99.90;;;;;;2482322;23;20007;-72
2022/05/01 02:26:59;;;;;;;45.03;32.83;;;7.70;99.90;;;;;;2482716;23;20003;-72
2022/05/01 02:27:59;;;;;;;43.38;32.33;;;7.70;99.90;;;;;;2482924;23;20095;-72
2022/05/01 02:29:00;;;;;;;42.28;31.25;;;7.70;99.90;;;;;;2483200;23;20434;-72
2022/05/01 02:30:01;;;;;;;43.17;32.00;;;7.70;99.90;;;;;;2471203;24;20454;-70
2022/05/01 02:31:01;;;;;;;42.80;31.33;;;7.70;99.90;;;;;;2483090;23;20015;-70
2022/05/01 02:32:03;;;;;;;40.72;31.15;;;7.60;99.90;;;;;;2483631;23;20104;-71
2022/05/01 02:33:06;;;;;;;45.42;31.15;;;7.60;99.90;;;;;;2486241;23;20008;-71
2022/05/01 02:34:08;;;;;;;42.20;31.17;;;7.60;99.90;;;;;;2486843;23;20091;-70
2022/05/01 02:35:10;;;;;;;41.92;31.63;;;7.60;99.90;;;;;;2486785;23;20012;-72
2022/05/01 02:36:10;;;;;;;40.10;30.67;;;7.60;99.90;;;;;;2484804;23;20004;-72
2022/05/01 02:37:11;;;;;;;45.22;32.38;;;7.60;99.90;;;;;;2471081;24;20426;-73
2022/05/01 02:38:11;;;;;;;40.28;31.38;;;7.60;99.90;;;;;;2471402;23;20023;-73
2022/05/01 02:39:13;;;;;;;44.45;31.67;;;7.60;99.90;;;;;;2483717;23;20074;-73
2022/05/01 02:40:14;;;;;;;45.03;32.05;;;7.60;99.90;;;;;;2483410;23;20008;-71
2022/05/01 02:41:14;;;;;;;41.65;31.38;;;7.50;99.90;;;;;;2483545;23;20014;-73
2022/05/01 02:42:16;;;;;;;42.30;31.23;;;7.50;99.90;;;;;;2483564;23;20012;-73
2022/05/01 02:43:19;;;;;;;42.65;31.73;;;7.50;99.90;;;;;;2483525;23;20004;-72
2022/05/01 02:44:20;;;;;;;44.72;32.17;;;7.50;99.90;;;;;;2483487;23;20016;-72
2022/05/01 02:45:20;;;;;;;41.03;30.75;;;7.40;99.90;;;;;;2483545;23;20469;-72
2022/05/01 02:46:21;;;;;;;40.90;31.75;;;7.40;99.90;;;;;;2483482;23;20044;-72
2022/05/01 02:47:21;;;;;;;39.85;30.88;;;7.50;99.90;;;;;;2471004;24;20040;-72
2022/05/01 02:48:22;;;;;;;42.35;31.75;;;7.40;99.90;;;;;;2471409;24;20036;-72
2022/05/01 02:49:23;;;;;;;41.10;31.38;;;7.40;99.90;;;;;;2484111;23;20071;-73
2022/05/01 02:50:24;;;;;;;43.00;31.40;;;7.40;99.90;;;;;;2472006;24;20016;-73
2022/05/01 02:51:24;;;;;;;41.42;31.25;;;7.40;99.90;;;;;;2471947;23;20012;-72
2022/05/01 02:52:25;;;;;;;41.00;31.48;;;7.40;99.90;;;;;;2484356;23;20032;-72
2022/05/01 02:53:26;;;;;;;40.70;30.73;;;7.40;99.90;;;;;;2483811;23;20378;-72
2022/05/01 02:54:28;;;;;;;42.65;31.42;;;7.40;99.90;;;;;;2484082;23;20015;-73
2022/05/01 02:55:29;;;;;;;44.97;31.33;;;7.40;99.90;;;;;;2484106;23;20011;-72
2022/05/01 02:56:30;;;;;;;42.40;31.17;;;7.40;99.90;;;;;;2484836;23;20086;-72
2022/05/01 02:57:33;;;;;;;38.78;30.73;;;7.40;99.90;;;;;;2484735;23;20413;-72
2022/05/01 02:58:34;;;;;;;41.85;30.58;;;7.40;99.90;;;;;;2484751;23;20083;-72
2022/05/01 02:59:34;;;;;;;39.15;30.05;;;7.40;99.90;;;;;;2484950;23;20329;-72
2022/05/01 03:00:35;;;;;;;40.80;30.38;;;7.40;99.90;;;;;;2484710;23;19999;-72
2022/05/01 03:01:36;;;;;;;42.03;30.58;;;7.40;99.90;;;;;;2484668;23;20007;-73
2022/05/01 03:02:37;;;;;;;39.83;30.90;;;7.40;99.90;;;;;;2484910;23;20008;-73
2022/05/01 03:03:37;;;;;;;39.40;29.95;;;7.40;99.90;;;;;;2484679;23;20507;-72
2022/05/01 03:04:38;;;;;;;42.28;30.48;;;7.40;99.90;;;;;;2484718;23;20444;-72
2022/05/01 03:05:39;;;;;;;39.97;30.40;;;7.40;99.90;;;;;;2484515;23;20043;-72
2022/05/01 03:06:40;;;;;;;41.67;30.20;;;7.40;99.90;;;;;;2484679;23;20008;-72
2022/05/01 03:07:41;;;;;;;41.63;31.17;;;7.30;99.90;;;;;;2484479;23;20456;-72
2022/05/01 03:08:42;;;;;;;41.00;30.83;;;7.30;99.90;;;;;;2484562;23;20031;-72
2022/05/01 03:09:42;;;;;;;41.28;31.27;;;7.30;99.90;;;;;;2484573;23;20018;-72
2022/05/01 03:10:43;;;;;;;41.72;30.02;;;7.30;99.90;;;;;;2484674;23;20022;-72
2022/05/01 03:11:43;;;;;;;41.38;30.88;;;7.30;99.90;;;;;;2484437;23;20016;-72
2022/05/01 03:12:44;;;;;;;43.00;31.35;;;7.30;99.90;;;;;;2472284;24;20008;-72
2022/05/01 03:13:45;;;;;;;40.50;31.25;;;7.30;99.90;;;;;;2472244;24;20007;-72
2022/05/01 03:14:46;;;;;;;40.05;30.65;;;7.30;99.90;;;;;;2484595;23;20007;-72
2022/05/01 03:15:46;;;;;;;40.72;31.38;;;7.20;99.90;;;;;;2472125;24;20008;-72
2022/05/01 03:16:48;;;;;;;43.75;31.88;;;7.20;99.90;;;;;;2472081;24;20004;-73
2022/05/01 03:23:06;;;;;;;46.78;32.03;;;7.10;99.90;;;;;;2484874;23;20068;-72
2022/05/01 03:24:07;;;;;;;42.67;31.67;;;7.10;99.90;;;;;;2484787;23;20031;-72
2022/05/01 03:25:08;;;;;;;41.30;31.05;;;7.10;99.90;;;;;;2484627;23;20651;-72
2022/05/01 03:26:08;;;;;;;43.55;31.67;;;7.10;99.90;;;;;;2484664;23;20078;-72
2022/05/01 03:27:10;;;;;;;42.72;32.03;;;7.10;99.90;;;;;;2484701;23;20012;-72
2022/05/01 03:28:10;;;;;;;43.00;31.63;;;7.10;99.90;;;;;;2484307;23;20347;-73
2022/05/01 03:29:11;;;;;;;44.90;31.65;;;7.00;99.90;;;;;;2471679;24;20052;-72
2022/05/01 03:30:18;;;;;;;44.25;32.25;;;7.00;99.90;;;;;;2471828;24;20016;-72
2022/05/01 03:31:19;;;;;;;42.70;31.27;;;7.00;99.90;;;;;;2484167;23;20131;-72
2022/05/01 03:32:19;;;;;;;43.55;32.45;;;7.00;99.90;;;;;;2484216;23;20104;-72
2022/05/01 03:33:21;;;;;;;42.88;31.00;;;7.00;99.90;;;;;;2460204;24;20008;-71
2022/05/01 03:34:23;;;;;;;44.25;32.90;;;7.00;99.90;;;;;;2448937;24;20035;-71
2022/05/01 03:35:24;;;;;;;41.40;31.75;;;7.00;99.90;;;;;;2471884;23;20004;-72
2022/05/01 03:36:26;;;;;;;43.50;31.83;;;7.00;99.90;;;;;;2483163;23;20026;-72
2022/05/01 03:37:28;;;;;;;43.53;31.88;;;6.90;99.90;;;;;;2482954;23;20477;-72
2022/05/01 03:38:28;;;;;;;44.75;32.15;;;7.00;99.90;;;;;;2483830;23;20014;-72
2022/05/01 03:39:29;;;;;;;47.60;32.78;;;6.90;99.90;;;;;;2484047;23;20003;-72
2022/05/01 03:40:30;;;;;;;43.33;32.13;;;6.90;99.90;;;;;;2471523;24;20004;-72
2022/05/01 03:41:31;;;;;;;45.70;32.45;;;6.90;99.90;;;;;;2471973;23;20080;-71
2022/05/01 03:42:31;;;;;;;42.60;31.55;;;6.90;99.90;;;;;;2471635;24;20008;-71
2022/05/01 03:43:33;;;;;;;43.30;32.33;;;6.90;99.90;;;;;;2471769;24;20038;-71
2022/05/01 03:44:33;;;;;;;45.92;32.78;;;6.90;99.90;;;;;;2484207;23;20038;-72
2022/05/01 03:45:34;;;;;;;44.42;33.08;;;6.90;99.90;;;;;;2484641;23;20019;-72
2022/05/01 03:46:38;;;;;;;43.58;33.05;;;6.90;99.90;;;;;;2472281;24;20008;-72
2022/05/01 03:47:40;;;;;;;46.95;33.47;;;6.90;99.90;;;;;;2472687;23;20060;-72
2022/05/01 03:48:41;;;;;;;42.53;32.10;;;6.90;99.90;;;;;;2483763;23;20018;-72
2022/05/01 03:49:41;;;;;;;44.38;32.67;;;6.90;99.90;;;;;;2484709;23;20113;-72
2022/05/01 03:50:42;;;;;;;45.80;32.30;;;6.90;99.90;;;;;;2484720;23;20341;-72
2022/05/01 03:51:42;;;;;;;45.00;32.13;;;6.90;99.90;;;;;;2471637;24;20146;-72
2022/05/01 03:52:43;;;;;;;44.42;32.35;;;6.90;99.90;;;;;;2471609;24;20024;-73
2022/05/01 03:53:47;;;;;;;45.30;32.90;;;6.90;99.90;;;;;;2484039;23;20063;-72
2022/05/01 03:54:48;;;;;;;44.00;32.83;;;6.90;99.90;;;;;;2483929;23;20095;-71
2022/05/01 03:55:49;;;;;;;43.78;32.03;;;6.90;99.90;;;;;;2484085;23;20008;-71
2022/05/01 03:56:49;;;;;;;41.78;31.58;;;6.90;99.90;;;;;;2471578;24;20023;-71
2022/05/01 03:57:50;;;;;;;44.03;32.10;;;6.90;99.90;;;;;;2471520;24;20004;-71
2022/05/01 03:58:50;;;;;;;44.88;32.17;;;6.90;99.90;;;;;;2484113;23;20086;-71
2022/05/01 03:59:51;;;;;;;45.75;32.13;;;6.90;99.90;;;;;;2484085;23;20035;-71
2022/05/01 04:00:51;;;;;;;47.05;32.15;;;6.90;99.90;;;;;;2484018;23;20011;-71
2022/05/01 04:01:52;;;;;;;45.83;32.30;;;7.00;99.90;;;;;;2483850;23;20770;-72
2022/05/01 04:02:53;;;;;;;46.95;32.47;;;7.00;99.90;;;;;;2483899;23;20110;-72
2022/05/01 04:03:53;;;;;;;43.55;31.90;;;7.00;99.90;;;;;;2484071;23;20100;-72
2022/05/01 04:04:54;;;;;;;43.63;32.72;;;7.00;99.90;;;;;;2484085;23;20369;-72
2022/05/01 04:05:55;;;;;;;44.63;32.50;;;7.00;99.90;;;;;;2483941;23;20090;-72
2022/05/01 04:06:57;;;;;;;42.35;31.17;;;7.00;99.90;;;;;;2483443;23;20031;-72
2022/05/01 04:07:57;;;;;;;44.53;32.33;;;7.00;99.90;;;;;;2483634;23;20080;-72
2022/05/01 04:08:58;;;;;;;42.95;31.80;;;7.00;99.90;;;;;;2483092;23;20797;-72
2022/05/01 04:09:58;;;;;;;41.60;30.75;;;7.00;99.90;;;;;;2483002;23;20056;-72
2022/05/01 04:11:02;;;;;;;43.42;31.27;;;7.00;99.90;;;;;;2483103;23;20434;-72
2022/05/01 04:12:04;;;;;;;42.67;31.20;;;7.00;99.90;;;;;;2483292;23;20012;-72
2022/05/01 04:13:06;;;;;;;43.28;31.40;;;7.10;99.90;;;;;;2483742;23;20007;-72
2022/05/01 04:14:06;;;;;;;44.60;31.73;;;7.10;99.90;;;;;;2483957;23;20369;-72
2022/05/01 04:15:07;;;;;;;43.22;31.33;;;7.10;99.90;;;;;;2484169;23;20011;-72
2022/05/01 04:16:08;;;;;;;42.45;31.13;;;7.10;99.90;;;;;;2484191;23;20636;-72
2022/05/01 04:17:08;;;;;;;42.13;30.73;;;7.10;99.90;;;;;;2483887;23;20004;-72
2022/05/01 04:18:10;;;;;;;43.65;31.33;;;7.10;99.90;;;;;;2484124;23;20094;-71
2022/05/01 04:19:11;;;;;;;43.00;30.77;;;7.20;99.90;;;;;;2484120;23;20063;-72
2022/05/01 04:20:16;;;;;;;40.58;29.85;;;7.20;99.90;;;;;;2483885;23;20018;-72
2022/05/01 04:21:18;;;;;;;42.10;31.23;;;7.20;99.90;;;;;;2471701;24;20008;-72
2022/05/01 04:22:18;;;;;;;42.38;31.05;;;7.20;99.90;;;;;;2472049;23;20452;-71
2022/05/01 04:23:20;;;;;;;42.15;30.60;;;7.20;99.90;;;;;;2483817;23;20007;-72
2022/05/01 04:24:20;;;;;;;42.33;30.15;;;7.30;99.90;;;;;;2484121;23;20063;-71
2022/05/01 04:25:23;;;;;;;42.88;30.40;;;7.30;99.90;;;;;;2484051;23;20091;-72
2022/05/01 04:26:23;;;;;;;40.40;29.58;;;7.40;99.90;;;;;;2483851;23;20386;-72
2022/05/01 04:27:24;;;;;;;42.83;30.38;;;7.40;99.90;;;;;;2471325;24;20004;-72
2022/05/01 04:28:24;;;;;;;40.28;29.77;;;7.50;99.90;;;;;;2472159;24;20081;-72
2022/05/01 04:29:38;;;;;;;42.08;29.73;;;7.70;99.90;;;;;;2483713;23;20059;-72
2022/05/01 04:30:40;;;;;;;39.80;28.63;;;7.90;99.90;;;;;;2472351;23;20541;-72
2022/05/01 04:31:40;;;;;;;39.47;29.20;;;8.10;99.90;;;;;;2472361;23;20016;-72
2022/05/01 04:32:57;;;;;;;38.47;28.58;;;8.40;99.90;;;;;;2484920;23;20429;-72
2022/05/01 04:33:57;;;;;;;40.90;28.33;;;8.70;99.90;;;;;;2483858;23;20468;-72
2022/05/01 04:34:58;;;;;;;39.35;28.83;;;8.90;99.90;;;;;;2484164;23;20004;-73
2022/05/01 04:35:59;;;;;;;39.00;27.95;;;9.10;99.90;;;;;;2472609;24;20040;-73
2022/05/01 04:37:00;;;;;;;39.22;28.02;;;9.30;99.90;;;;;;2472155;23;20099;-72
2022/05/01 04:38:03;;;;;;;37.78;27.88;;;9.50;99.90;;;;;;2484635;23;20597;-72
2022/05/01 04:39:04;;;;;;;37.28;27.00;;;9.70;99.90;;;;;;2471656;24;20016;-72
2022/05/01 04:40:05;;;;;;;34.65;26.60;;;9.80;99.90;;;;;;2471186;24;20004;-72
2022/05/01 04:41:06;;;;;;;36.88;26.50;;;10.00;99.90;;;;;;2483820;23;20504;-72
2022/05/01 04:42:07;;;;;;;36.38;27.27;;;10.10;99.90;;;;;;2483956;23;20008;-72
2022/05/01 04:43:11;;;;;;;35.33;26.35;;;10.20;99.90;;;;;;2483908;23;20008;-72
2022/05/01 04:44:11;;;;;;;37.13;26.95;;;10.40;99.90;;;;;;2483984;23;20019;-72
2022/05/01 04:45:13;;;;;;;37.90;26.95;;;10.50;99.90;;;;;;2483915;23;20422;-72
2022/05/01 04:46:14;;;;;;;36.15;26.52;;;10.60;99.90;;;;;;2483819;23;20008;-72
2022/05/01 04:47:15;;;;;;;33.58;26.20;;;10.70;99.90;;;;;;2483496;23;20011;-72
2022/05/01 04:48:18;;;;;;;36.50;26.48;;;10.80;99.90;;;;;;2483993;23;20341;-72
2022/05/01 04:49:18;;;;;;;33.03;25.38;;;10.90;99.90;;;;;;2484182;23;20007;-72
2022/05/01 04:50:19;;;;;;;36.65;26.48;;;11.00;99.90;;;;;;2483988;23;20591;-72
2022/05/01 04:51:20;;;;;;;35.67;26.83;;;11.10;99.90;;;;;;2483919;23;20008;-73
2022/05/01 04:52:20;;;;;;;35.25;25.42;;;11.20;99.90;;;;;;2483944;23;20036;-73
2022/05/01 04:53:22;;;;;;;31.48;24.85;;;11.30;99.90;;;;;;2483948;23;20014;-72
2022/05/01 04:54:22;;;;;;;33.55;25.02;;;11.40;99.90;;;;;;2482972;23;20035;-72
2022/05/01 04:55:23;;;;;;;33.33;24.70;;;11.50;99.90;;;;;;2471531;24;20057;-72
2022/05/01 04:57:43;;;;;;;32.40;24.85;;;11.70;99.90;;;;;;2483671;23;20086;-72
2022/05/01 04:58:45;;;;;;;33.28;24.90;;;11.80;99.90;;;;;;2471436;24;20469;-72
2022/05/01 04:59:46;;;;;;;34.33;25.20;;;11.90;99.90;;;;;;2471871;23;20028;-72
2022/05/01 05:00:48;;;;;;;31.42;24.50;;;12.00;99.90;;;;;;2483904;23;20035;-72
2022/05/01 05:01:49;;;;;;;35.50;25.08;;;12.00;99.90;;;;;;2471493;24;20019;-72
2022/05/01 05:02:52;;;;;;;31.88;24.48;;;12.10;99.90;;;;;;2471696;23;20012;-72
2022/05/01 05:03:52;;;;;;;31.10;24.38;;;12.20;99.90;;;;;;2483894;23;20090;-72
2022/05/01 05:04:53;;;;;;;33.72;24.63;;;12.30;99.90;;;;;;2485216;23;20496;-72
2022/05/01 05:05:53;;;;;;;32.08;25.00;;;12.40;99.40;;;;;;2486100;23;20003;-72
2022/05/01 05:06:54;;;;;;;30.20;24.55;;;12.40;98.90;;;;;;2484822;23;20551;-72
2022/05/01 05:07:55;;;;;;;30.17;23.90;;;12.50;98.40;;;;;;2484262;23;20007;-73
2022/05/01 05:10:16;;;;;;;31.63;23.90;;;12.60;97.40;;;;;;2484066;23;20059;-73
2022/05/01 05:11:17;;;;;;;30.40;23.08;;;12.70;96.60;;;;;;2484308;23;20045;-73
2022/05/01 05:12:17;;;;;;;27.88;23.25;;;12.70;96.30;;;;;;2472765;24;20055;-74
2022/05/01 05:13:24;;;;;;;30.40;24.00;;;12.80;95.90;;;;;;2471849;24;20038;-74
2022/05/01 05:14:24;;;;;;;31.27;23.55;;;12.80;95.90;;;;;;2484015;23;20445;-75
2022/05/01 05:15:25;;;;;;;29.25;23.42;;;12.90;95.60;;;;;;2483995;23;20004;-76
2022/05/01 05:16:28;;;;;;;31.35;23.63;;;13.00;95.50;;;;;;2484624;23;20441;-75
2022/05/01 05:17:31;;;;;;;32.38;24.05;;;13.10;95.50;;;;;;2484211;23;19996;-75
2022/05/01 05:18:32;;;;;;;30.30;23.15;;;13.10;94.70;;;;;;2484113;23;20058;-74
2022/05/01 05:19:34;;;;;;;30.50;23.27;;;13.20;94.50;;;;;;2484341;23;20522;-75
2022/05/01 05:20:35;;;;;;;28.17;22.48;;;13.30;94.20;;;;;;2484638;23;20003;-74
2022/05/01 05:21:35;;;;;;;29.80;22.27;;;13.40;93.50;;;;;;2484447;23;20012;-74
2022/05/01 05:22:36;;;;;;;28.30;22.20;;;13.50;93.30;;;;;;2484746;23;20031;-74
2022/05/01 05:23:36;;;;;;;27.20;21.67;;;13.50;93.20;;;;;;2472140;24;20072;-74
2022/05/01 05:24:37;;;;;;;27.55;22.33;;;13.60;92.70;;;;;;2472660;23;20016;-80
2022/05/01 05:25:37;;;;;;;27.50;21.70;;;13.70;92.40;;;;;;2486687;23;20032;-83
2022/05/01 05:26:38;;;;;;;25.30;21.38;;;13.80;92.30;;;;;;2484737;23;20042;-75
2022/05/01 05:27:39;;;;;;;27.40;21.75;;;13.90;91.20;;;;;;2483600;23;20035;-74
2022/05/01 05:28:39;;;;;;;28.63;21.55;;;14.00;90.50;;;;;;2471449;24;20052;-74
2022/05/01 05:29:40;;;;;;;27.92;22.00;;;14.10;90.10;;;;;;2471236;24;20099;-73
2022/05/01 05:30:41;;;;;;;32.28;25.15;;;14.20;88.50;;;;;;2483679;23;20445;-74
2022/05/01 05:31:41;;;;;;;38.35;29.23;;;14.20;88.30;;;;;;2483633;23;20445;-73